createdAt,value
2018-05-10T00:01:43.691Z,32.73
2018-05-10T00:04:12.635Z,35.57
2018-05-10T00:06:40.077Z,21.90
2018-05-10T00:09:08.280Z,24.13
2018-05-10T00:11:35.701Z,28.53
2018-05-10T00:14:03.117Z,30.50
2018-05-10T00:16:30.532Z,27.70
2018-05-10T00:18:57.970Z,33.80
2018-05-10T00:21:25.444Z,35.63
2018-05-10T00:23:52.873Z,26.43
2018-05-10T00:26:21.052Z,32.30
2018-05-10T00:28:49.249Z,27.40
2018-05-10T00:31:18.372Z,31.03
2018-05-10T00:33:46.545Z,30.83
2018-05-10T00:36:14.773Z,36.60
2018-05-10T00:38:42.198Z,33.17
2018-05-10T00:41:10.417Z,22.10
2018-05-10T00:43:37.832Z,29.27
2018-05-10T00:46:06.011Z,28.40
2018-05-10T00:48:33.444Z,42.93
2018-05-10T00:51:00.902Z,30.70
2018-05-10T00:53:29.089Z,25.33
2018-05-10T00:55:56.554Z,26.03
2018-05-10T00:58:23.963Z,29.47
2018-05-10T01:00:51.498Z,25.73
2018-05-10T01:03:24.652Z,27.67
2018-05-10T01:05:52.068Z,25.30
2018-05-10T01:08:19.533Z,28.33
2018-05-10T01:10:46.973Z,30.70
2018-05-10T01:13:14.384Z,24.57
2018-05-10T01:15:41.820Z,29.53
2018-05-10T01:18:10.001Z,32.05
2018-05-10T01:20:38.193Z,34.47
2018-05-10T01:23:06.389Z,27.80
2018-05-10T01:25:33.816Z,31.90
2018-05-10T01:28:01.224Z,27.73
2018-05-10T01:30:28.709Z,32.23
2018-05-10T01:32:56.226Z,30.27
2018-05-10T01:35:35.459Z,25.73
2018-05-10T01:38:02.885Z,27.90
2018-05-10T01:40:30.329Z,33.43
2018-05-10T01:42:58.504Z,30.47
2018-05-10T01:45:26.017Z,42.67
2018-05-10T01:47:53.585Z,31.20
2018-05-10T01:50:21.019Z,29.17
2018-05-10T01:52:48.423Z,30.80
2018-05-10T01:55:15.900Z,32.00
2018-05-10T01:57:43.331Z,28.70
2018-05-10T02:00:11.527Z,28.80
2018-05-10T02:02:38.956Z,27.53
2018-05-10T02:05:06.382Z,36.70
2018-05-10T02:07:33.861Z,30.93
2018-05-10T02:10:01.288Z,34.60
2018-05-10T02:12:28.694Z,30.50
2018-05-10T02:14:56.116Z,29.23
2018-05-10T02:17:23.529Z,28.53
2018-05-10T02:19:50.980Z,31.40
2018-05-10T02:22:18.392Z,31.33
2018-05-10T02:24:45.846Z,28.17
2018-05-10T02:27:13.272Z,36.37
2018-05-10T02:29:41.543Z,35.80
2018-05-10T02:32:08.923Z,32.63
2018-05-10T02:34:36.528Z,30.53
2018-05-10T02:37:03.941Z,25.97
2018-05-10T02:39:31.361Z,31.47
2018-05-10T02:41:58.833Z,38.77
2018-05-10T02:44:26.238Z,29.00
2018-05-10T02:46:53.662Z,28.40
2018-05-10T02:49:21.131Z,28.53
2018-05-10T02:51:48.570Z,33.30
2018-05-10T02:54:16.764Z,30.03
2018-05-10T02:56:44.959Z,28.03
2018-05-10T02:59:13.153Z,33.17
2018-05-10T03:01:40.598Z,32.17
2018-05-10T03:04:08.024Z,29.08
2018-05-10T03:06:35.479Z,28.80
2018-05-10T03:09:02.905Z,32.03
2018-05-10T03:11:31.092Z,35.20
2018-05-10T03:13:59.288Z,30.20
2018-05-10T03:16:26.708Z,31.20
2018-05-10T03:18:54.138Z,28.33
2018-05-10T03:21:21.554Z,33.77
2018-05-10T03:23:49.001Z,35.97
2018-05-10T03:26:16.423Z,33.60
2018-05-10T03:28:44.617Z,37.43
2018-05-10T03:31:12.113Z,37.57
2018-05-10T03:33:39.576Z,33.00
2018-05-10T03:36:07.033Z,32.40
2018-05-10T03:38:34.463Z,36.17
2018-05-10T03:41:01.891Z,37.03
2018-05-10T03:43:29.319Z,38.03
2018-05-10T03:45:57.500Z,31.93
2018-05-10T03:48:25.716Z,33.50
2018-05-10T03:50:53.203Z,33.00
2018-05-10T03:53:21.577Z,30.90
2018-05-10T03:55:49.053Z,35.30
2018-05-10T03:58:16.469Z,31.57
2018-05-10T04:00:43.905Z,29.93
2018-05-10T04:03:32.014Z,30.47
2018-05-10T04:06:12.049Z,36.73
2018-05-10T04:08:51.370Z,30.73
2018-05-10T04:11:28.663Z,29.83
2018-05-10T04:13:57.653Z,31.57
2018-05-10T04:16:25.072Z,36.60
2018-05-10T04:18:52.489Z,32.57
2018-05-10T04:21:19.913Z,36.60
2018-05-10T04:23:47.335Z,37.77
2018-05-10T04:26:14.768Z,41.27
2018-05-10T04:28:42.962Z,32.40
2018-05-10T04:31:11.184Z,38.60
2018-05-10T04:33:38.640Z,40.97
2018-05-10T04:36:06.058Z,35.93
2018-05-10T04:38:33.484Z,35.63
2018-05-10T04:41:00.918Z,36.43
2018-05-10T04:43:29.092Z,33.33
2018-05-10T04:45:56.600Z,30.57
2018-05-10T04:48:24.025Z,34.50
2018-05-10T04:50:52.376Z,31.67
2018-05-10T04:53:19.797Z,33.93
2018-05-10T04:55:47.981Z,31.70
2018-05-10T04:58:15.417Z,29.27
2018-05-10T05:00:42.825Z,31.70
2018-05-10T05:03:11.079Z,35.97
2018-05-10T05:05:38.504Z,37.83
2018-05-10T05:08:05.930Z,31.07
2018-05-10T05:10:33.351Z,28.67
2018-05-10T05:13:00.776Z,29.83
2018-05-10T05:15:28.995Z,30.63
2018-05-10T05:17:56.459Z,30.40
2018-05-10T05:20:23.939Z,30.97
2018-05-10T05:22:51.366Z,24.83
2018-05-10T05:25:18.781Z,27.43
2018-05-10T05:27:46.231Z,31.90
2018-05-10T05:30:13.701Z,30.30
2018-05-10T05:32:41.152Z,30.63
2018-05-10T05:35:09.373Z,28.60
2018-05-10T05:37:36.879Z,25.97
2018-05-10T05:40:04.298Z,27.33
2018-05-10T05:42:31.713Z,27.57
2018-05-10T05:44:59.153Z,31.23
2018-05-10T05:47:26.601Z,25.20
2018-05-10T05:49:54.020Z,31.33
2018-05-10T05:52:21.544Z,32.07
2018-05-10T05:54:49.000Z,27.93
2018-05-10T05:57:16.498Z,24.87
2018-05-10T05:59:43.986Z,24.43
2018-05-10T06:02:11.438Z,21.13
2018-05-10T06:04:38.847Z,24.60
2018-05-10T06:07:06.273Z,27.60
2018-05-10T06:09:33.755Z,25.37
2018-05-10T06:12:01.185Z,23.15
2018-05-10T06:14:29.389Z,23.97
2018-05-10T06:16:56.818Z,24.60
2018-05-10T06:19:25.045Z,20.63
2018-05-10T06:21:52.461Z,32.90
2018-05-10T06:24:20.092Z,21.50
2018-05-10T06:26:47.551Z,25.97
2018-05-10T06:29:15.012Z,26.80
2018-05-10T06:31:42.466Z,32.47
2018-05-10T06:34:10.637Z,19.00
2018-05-10T06:36:38.820Z,22.90
2018-05-10T06:39:07.055Z,24.87
2018-05-10T06:41:34.617Z,21.30
2018-05-10T06:44:01.983Z,23.87
2018-05-10T06:46:29.396Z,22.83
2018-05-10T06:48:57.572Z,19.50
2018-05-10T06:51:25.108Z,16.60
2018-05-10T06:53:52.516Z,26.33
2018-05-10T06:56:20.036Z,22.13
2018-05-10T06:58:47.463Z,23.53
2018-05-10T07:01:15.033Z,26.47
2018-05-10T07:03:42.488Z,30.43
2018-05-10T07:06:09.941Z,24.50
2018-05-10T07:08:37.370Z,24.83
2018-05-10T07:11:05.590Z,23.20
2018-05-10T07:13:33.041Z,20.77
2018-05-10T07:16:00.474Z,18.47
2018-05-10T07:18:28.676Z,22.10
2018-05-10T07:20:56.114Z,16.13
2018-05-10T07:23:24.498Z,19.13
2018-05-10T07:25:52.024Z,24.70
2018-05-10T07:28:19.477Z,17.27
2018-05-10T07:30:47.688Z,24.43
2018-05-10T07:33:15.165Z,19.90
2018-05-10T07:35:42.614Z,24.60
2018-05-10T07:38:10.124Z,18.70
2018-05-10T07:40:37.547Z,23.43
2018-05-10T07:43:05.022Z,20.40
2018-05-10T07:45:32.471Z,22.03
2018-05-10T07:48:00.644Z,20.63
2018-05-10T07:50:28.153Z,17.00
2018-05-10T07:52:55.606Z,19.00
2018-05-10T07:55:23.098Z,20.57
2018-05-10T07:57:50.551Z,21.30
2018-05-10T08:00:18.031Z,20.77
2018-05-10T08:02:45.561Z,21.23
2018-05-10T08:05:13.028Z,19.20
2018-05-10T08:07:40.504Z,21.77
2018-05-10T08:10:07.988Z,23.63
2018-05-10T08:12:35.508Z,16.27
2018-05-10T08:15:02.997Z,21.67
2018-05-10T08:17:30.553Z,15.90
2018-05-10T08:19:58.039Z,19.30
2018-05-10T08:22:25.636Z,17.95
2018-05-10T08:24:53.082Z,18.23
2018-05-10T08:27:20.555Z,17.90
2018-05-10T08:29:48.844Z,14.60
2018-05-10T08:32:16.433Z,27.00
2018-05-10T08:34:44.727Z,19.17
2018-05-10T08:37:12.966Z,16.67
2018-05-10T08:39:40.550Z,19.27
2018-05-10T08:42:07.973Z,22.57
2018-05-10T08:44:35.408Z,16.20
2018-05-10T08:47:03.637Z,21.20
2018-05-10T08:49:31.146Z,23.27
2018-05-10T08:51:58.716Z,23.90
2018-05-10T08:54:27.008Z,19.90
2018-05-10T08:56:54.452Z,22.53
2018-05-10T08:59:21.892Z,20.70
2018-05-10T09:01:49.461Z,25.17
2018-05-10T09:04:17.759Z,28.20
2018-05-10T09:06:45.323Z,28.30
2018-05-10T09:09:13.624Z,36.30
2018-05-10T09:11:41.117Z,46.53
2018-05-10T09:14:08.592Z,41.97
2018-05-10T09:16:36.073Z,48.70
2018-05-10T09:19:03.532Z,53.23
2018-05-10T09:21:30.989Z,57.07
2018-05-10T09:23:58.477Z,63.70
2018-05-10T09:26:26.707Z,79.20
2018-05-10T09:28:54.973Z,63.10
2018-05-10T09:31:23.170Z,83.03
2018-05-10T09:33:51.446Z,78.00
2018-05-10T09:36:18.829Z,86.47
2018-05-10T09:38:47.007Z,81.80
2018-05-10T09:41:15.233Z,76.73
2018-05-10T09:43:42.652Z,88.50
2018-05-10T09:46:10.936Z,89.07
2018-05-10T09:48:38.439Z,88.33
2018-05-10T09:51:05.845Z,95.37
2018-05-10T09:53:33.288Z,99.23
2018-05-10T09:56:00.758Z,100.00
2018-05-10T09:58:28.201Z,98.83
2018-05-10T10:00:57.321Z,93.20
2018-05-10T10:03:24.753Z,92.80
2018-05-10T10:05:52.260Z,92.33
2018-05-10T10:08:19.680Z,93.23
2018-05-10T10:10:47.108Z,99.67
2018-05-10T10:13:14.589Z,103.93
2018-05-10T10:15:42.084Z,94.33
2018-05-10T10:18:09.491Z,95.63
2018-05-10T10:20:37.672Z,102.60
2018-05-10T10:23:05.880Z,101.07
2018-05-10T10:25:33.289Z,100.03
2018-05-10T10:28:00.715Z,113.17
2018-05-10T10:30:28.132Z,109.17
2018-05-10T10:32:55.658Z,102.17
2018-05-10T10:35:23.068Z,116.73
2018-05-10T10:37:50.497Z,104.50
2018-05-10T10:40:17.949Z,111.73
2018-05-10T10:42:45.429Z,100.93
2018-05-10T10:45:12.844Z,99.13
2018-05-10T10:47:40.272Z,98.80
2018-05-10T10:50:07.729Z,99.30
2018-05-10T10:52:35.185Z,102.40
2018-05-10T10:55:03.384Z,96.93
2018-05-10T10:57:30.814Z,109.60
2018-05-10T10:59:58.278Z,100.23
2018-05-10T11:02:25.652Z,105.47
2018-05-10T11:04:53.880Z,98.33
2018-05-10T11:07:22.060Z,107.90
2018-05-10T11:09:49.488Z,98.20
2018-05-10T11:12:16.940Z,101.07
2018-05-10T11:14:44.369Z,109.97
2018-05-10T11:17:11.811Z,98.23
2018-05-10T11:19:40.132Z,96.90
2018-05-10T11:22:07.631Z,99.07
2018-05-10T11:24:35.063Z,106.23
2018-05-10T11:27:02.481Z,107.70
2018-05-10T11:29:30.007Z,97.53
2018-05-10T11:31:57.490Z,87.20
2018-05-10T11:34:24.956Z,91.90
2018-05-10T11:36:52.406Z,92.70
2018-05-10T11:39:19.869Z,89.83
2018-05-10T11:41:47.284Z,85.10
2018-05-10T11:44:14.706Z,83.30
2018-05-10T11:46:42.139Z,81.93
2018-05-10T11:49:09.654Z,83.17
2018-05-10T11:51:37.078Z,72.33
2018-05-10T11:54:04.509Z,66.40
2018-05-10T11:56:31.937Z,67.10
2018-05-10T11:58:59.432Z,53.33
2018-05-10T12:01:26.825Z,54.93
2018-05-10T12:03:54.261Z,54.63
2018-05-10T12:06:21.680Z,56.03
2018-05-10T12:08:49.101Z,53.20
2018-05-10T12:11:16.569Z,56.60
2018-05-10T12:13:43.996Z,51.10
2018-05-10T12:16:11.445Z,48.00
2018-05-10T12:18:38.978Z,51.07
2018-05-10T12:21:06.421Z,48.03
2018-05-10T12:23:34.659Z,54.90
2018-05-10T12:26:02.065Z,44.60
2018-05-10T12:28:29.794Z,44.60
2018-05-10T12:30:57.251Z,45.77
2018-05-10T12:33:25.405Z,47.77
2018-05-10T12:35:53.589Z,45.33
2018-05-10T12:38:21.803Z,40.40
2018-05-10T12:40:49.241Z,46.73
2018-05-10T12:43:17.461Z,44.23
2018-05-10T12:45:44.915Z,38.40
2018-05-10T12:48:12.361Z,36.20
2018-05-10T12:50:40.578Z,28.83
2018-05-10T12:53:08.041Z,38.83
2018-05-10T12:55:35.461Z,36.40
2018-05-10T12:58:02.984Z,35.50
2018-05-10T13:00:30.402Z,35.97
2018-05-10T13:02:57.888Z,36.00
2018-05-10T13:05:25.280Z,44.80
2018-05-10T13:07:52.704Z,35.13
2018-05-10T13:10:20.117Z,31.50
2018-05-10T13:12:47.594Z,43.07
2018-05-10T13:15:15.765Z,31.57
2018-05-10T13:17:43.196Z,38.33
2018-05-10T13:20:10.633Z,32.33
2018-05-10T13:22:38.068Z,27.63
2018-05-10T13:25:06.261Z,31.37
2018-05-10T13:27:33.676Z,30.60
2018-05-10T13:30:01.102Z,30.67
2018-05-10T13:32:28.580Z,30.77
2018-05-10T13:34:56.009Z,27.27
2018-05-10T13:37:24.241Z,25.80
2018-05-10T13:39:51.667Z,26.90
2018-05-10T13:42:19.876Z,28.10
2018-05-10T13:44:48.065Z,26.10
2018-05-10T13:47:15.615Z,27.73
2018-05-10T13:49:43.045Z,26.30
2018-05-10T13:52:10.491Z,25.20
2018-05-10T13:54:37.904Z,26.27
2018-05-10T13:57:06.093Z,27.27
2018-05-10T13:59:33.534Z,28.37
2018-05-10T14:02:01.328Z,24.90
2018-05-10T14:04:28.859Z,22.53
2018-05-10T14:06:57.033Z,24.23
2018-05-10T14:09:24.459Z,22.63
2018-05-10T14:11:51.886Z,24.27
2018-05-10T14:14:19.345Z,18.23
2018-05-10T14:16:46.773Z,21.87
2018-05-10T14:19:14.322Z,26.17
2018-05-10T14:21:41.779Z,16.70
2018-05-10T14:24:09.197Z,18.13
2018-05-10T14:26:37.392Z,13.67
2018-05-10T14:29:04.865Z,14.53
2018-05-10T14:31:32.312Z,17.33
2018-05-10T14:33:59.720Z,14.63
2018-05-10T14:36:27.137Z,22.67
2018-05-10T14:38:54.564Z,13.50
2018-05-10T14:41:21.975Z,12.70
2018-05-10T14:43:49.472Z,12.47
2018-05-10T14:46:16.913Z,13.23
2018-05-10T14:48:44.337Z,13.47
2018-05-10T14:51:11.772Z,11.60
2018-05-10T14:53:39.977Z,14.30
2018-05-10T14:56:07.437Z,19.30
2018-05-10T14:58:35.642Z,21.40
2018-05-10T15:01:03.068Z,11.43
2018-05-10T15:03:32.190Z,15.33
2018-05-10T15:06:00.368Z,14.43
2018-05-10T15:08:28.570Z,15.63
2018-05-10T15:10:56.069Z,25.33
2018-05-10T15:13:23.565Z,13.27
2018-05-10T15:15:50.968Z,13.40
2018-05-10T15:18:19.171Z,20.90
2018-05-10T15:20:46.613Z,10.80
2018-05-10T15:23:14.810Z,9.30
2018-05-10T15:25:43.074Z,14.30
2018-05-10T15:28:11.264Z,8.90
2018-05-10T15:30:39.578Z,11.50
2018-05-10T15:33:07.015Z,14.70
2018-05-10T15:35:34.420Z,13.77
2018-05-10T15:38:03.421Z,14.73
2018-05-10T15:40:30.895Z,32.63
2018-05-10T15:42:58.356Z,12.20
2018-05-10T15:45:27.532Z,18.33
2018-05-10T15:47:54.957Z,12.03
2018-05-10T15:50:22.537Z,11.90
2018-05-10T15:52:50.038Z,10.27
2018-05-10T15:55:17.540Z,13.67
2018-05-10T15:57:45.080Z,13.87
2018-05-10T16:00:12.521Z,13.63
2018-05-10T16:02:39.994Z,13.60
2018-05-10T16:05:07.473Z,10.90
2018-05-10T16:07:34.965Z,10.53
2018-05-10T16:10:03.894Z,6.00
2018-05-10T16:12:31.305Z,16.73
2018-05-10T16:14:58.769Z,11.93
2018-05-10T16:17:26.971Z,11.60
2018-05-10T16:19:54.484Z,12.87
2018-05-10T16:22:22.654Z,11.20
2018-05-10T16:24:50.844Z,9.90
2018-05-10T16:27:19.035Z,10.30
2018-05-10T16:29:48.262Z,12.07
2018-05-10T16:32:15.747Z,20.07
2018-05-10T16:34:43.167Z,8.17
2018-05-10T16:37:11.404Z,11.43
2018-05-10T16:39:38.813Z,13.93
2018-05-10T16:42:06.232Z,10.60
2018-05-10T16:44:33.689Z,7.87
2018-05-10T16:47:01.109Z,7.47
2018-05-10T16:49:28.519Z,7.90
2018-05-10T16:51:55.959Z,13.70
2018-05-10T16:54:23.371Z,8.80
2018-05-10T16:56:50.850Z,11.30
2018-05-10T16:59:18.333Z,11.73
2018-05-10T17:01:45.786Z,13.80
2018-05-10T17:04:13.239Z,7.87
2018-05-10T17:06:40.716Z,6.80
2018-05-10T17:09:08.138Z,24.73
2018-05-10T17:11:37.056Z,15.40
2018-05-10T17:14:05.248Z,10.23
2018-05-10T17:16:34.341Z,20.37
2018-05-10T17:19:02.542Z,10.60
2018-05-10T17:21:30.741Z,13.97
2018-05-10T17:23:58.148Z,9.17
2018-05-10T17:26:25.569Z,8.47
2018-05-10T17:28:53.160Z,7.13
2018-05-10T17:31:20.573Z,11.93
2018-05-10T17:33:49.492Z,7.90
2018-05-10T17:36:16.996Z,8.80
2018-05-10T17:38:45.165Z,14.00
2018-05-10T17:41:13.471Z,7.40
2018-05-10T17:43:40.977Z,8.23
2018-05-10T17:46:08.411Z,9.10
2018-05-10T17:48:35.870Z,9.97
2018-05-10T17:51:04.266Z,8.60
2018-05-10T17:53:31.714Z,13.20
2018-05-10T17:55:59.093Z,7.43
2018-05-10T17:58:26.511Z,10.70
2018-05-10T18:00:53.948Z,7.73
2018-05-10T18:03:21.368Z,10.23
2018-05-10T18:05:48.789Z,10.03
2018-05-10T18:08:16.244Z,11.23
2018-05-10T18:10:43.677Z,11.87
2018-05-10T18:13:12.021Z,12.03
2018-05-10T18:15:39.447Z,7.10
2018-05-10T18:18:07.625Z,9.30
2018-05-10T18:20:35.053Z,9.03
2018-05-10T18:23:02.456Z,11.50
2018-05-10T18:25:31.401Z,12.20
2018-05-10T18:27:59.556Z,11.57
2018-05-10T18:30:27.749Z,8.63
2018-05-10T18:32:55.164Z,8.50
2018-05-10T18:35:22.569Z,8.53
2018-05-10T18:37:50.758Z,9.60
2018-05-10T18:40:18.933Z,6.53
2018-05-10T18:42:46.366Z,10.47
2018-05-10T18:45:13.802Z,10.97
2018-05-10T18:47:41.976Z,7.90
2018-05-10T18:50:10.174Z,10.50
2018-05-10T18:52:37.581Z,11.43
2018-05-10T18:55:06.018Z,10.13
2018-05-10T18:57:35.132Z,13.97
2018-05-10T19:00:03.308Z,13.07
2018-05-10T19:02:31.531Z,9.43
2018-05-10T19:04:58.931Z,9.07
2018-05-10T19:07:26.361Z,10.37
2018-05-10T19:09:53.771Z,7.27
2018-05-10T19:12:21.186Z,8.20
2018-05-10T19:14:48.756Z,8.87
2018-05-10T19:17:16.171Z,5.77
2018-05-10T19:19:44.996Z,9.50
2018-05-10T19:22:12.392Z,8.43
2018-05-10T19:24:39.856Z,9.60
2018-05-10T19:27:08.033Z,11.47
2018-05-10T19:29:36.516Z,5.78
2018-05-10T19:32:04.021Z,8.70
2018-05-10T19:34:31.488Z,8.43
2018-05-10T19:36:59.613Z,12.10
2018-05-10T19:39:27.034Z,10.20
2018-05-10T19:41:54.470Z,7.60
2018-05-10T19:44:21.904Z,12.50
2018-05-10T19:46:49.317Z,14.23
2018-05-10T19:49:16.727Z,9.37
2018-05-10T19:51:44.206Z,13.50
2018-05-10T19:54:11.868Z,10.33
2018-05-10T19:56:39.346Z,9.93
2018-05-10T19:59:06.690Z,13.27
2018-05-10T20:01:34.159Z,11.60
2018-05-10T20:04:02.324Z,10.40
2018-05-10T20:06:30.512Z,10.27
2018-05-10T20:08:58.700Z,13.67
2018-05-10T20:11:26.901Z,13.10
2018-05-10T20:13:54.314Z,11.03
2018-05-10T20:16:21.745Z,12.93
2018-05-10T20:18:49.163Z,9.87
2018-05-10T20:21:16.655Z,8.60
2018-05-10T20:23:44.026Z,7.43
2018-05-10T20:26:11.564Z,13.00
2018-05-10T20:28:38.989Z,9.83
2018-05-10T20:31:06.486Z,10.40
2018-05-10T20:33:33.918Z,14.27
2018-05-10T20:36:01.324Z,6.87
2018-05-10T20:38:28.761Z,8.83
2018-05-10T20:40:56.169Z,8.33
2018-05-10T20:43:23.589Z,14.00
2018-05-10T20:45:51.165Z,10.37
2018-05-10T20:48:19.354Z,9.43
2018-05-10T20:50:47.533Z,15.10
2018-05-10T20:53:14.948Z,11.80
2018-05-10T20:55:42.369Z,10.50
2018-05-10T20:58:09.797Z,11.17
2018-05-10T21:00:37.199Z,15.83
2018-05-10T21:03:04.617Z,15.33
2018-05-10T21:05:32.041Z,12.30
2018-05-10T21:07:59.460Z,13.17
2018-05-10T21:10:26.883Z,11.80
2018-05-10T21:12:54.298Z,8.90
2018-05-10T21:15:21.716Z,13.83
2018-05-10T21:17:49.211Z,19.13
2018-05-10T21:20:16.659Z,15.87
2018-05-10T21:22:44.106Z,15.50
2018-05-10T21:25:12.345Z,11.87
2018-05-10T21:27:39.763Z,10.93
2018-05-10T21:30:08.137Z,15.90
2018-05-10T21:32:37.275Z,11.47
2018-05-10T21:35:04.676Z,13.37
2018-05-10T21:37:32.125Z,12.90
2018-05-10T21:39:59.545Z,14.13
2018-05-10T21:42:27.761Z,11.63
2018-05-10T21:44:55.181Z,11.70
2018-05-10T21:47:22.601Z,11.03
2018-05-10T21:50:01.835Z,12.50
2018-05-10T21:52:29.276Z,12.90
2018-05-10T21:54:56.688Z,14.33
2018-05-10T21:57:24.097Z,12.70
2018-05-10T21:59:51.526Z,17.63
2018-05-10T22:02:22.892Z,17.37
2018-05-10T22:04:50.312Z,17.03
2018-05-10T22:07:18.535Z,13.43
2018-05-10T22:09:45.969Z,13.20
2018-05-10T22:12:13.497Z,10.20
2018-05-10T22:14:40.853Z,18.83
2018-05-10T22:17:08.276Z,14.30
2018-05-10T22:19:36.466Z,15.60
2018-05-10T22:22:03.868Z,16.00
2018-05-10T22:24:31.297Z,16.30
2018-05-10T22:26:58.712Z,14.30
2018-05-10T22:29:26.121Z,20.63
2018-05-10T22:31:53.552Z,21.30
2018-05-10T22:34:20.973Z,16.13
2018-05-10T22:36:49.175Z,20.67
2018-05-10T22:39:16.592Z,21.03
2018-05-10T22:41:44.028Z,16.23
2018-05-10T22:44:11.468Z,15.80
2018-05-10T22:46:39.644Z,14.87
2018-05-10T22:49:08.756Z,19.40
2018-05-10T22:51:36.965Z,16.67
2018-05-10T22:54:05.155Z,17.37
2018-05-10T22:56:32.620Z,15.00
2018-05-10T22:59:00.036Z,16.33
2018-05-10T23:01:27.457Z,19.80
2018-05-10T23:03:55.626Z,12.80
2018-05-10T23:06:23.808Z,13.50
2018-05-10T23:08:51.219Z,16.33
2018-05-10T23:11:18.708Z,13.97
2018-05-10T23:13:46.144Z,16.50
2018-05-10T23:16:13.645Z,12.67
2018-05-10T23:18:41.081Z,14.90
2018-05-10T23:21:09.645Z,14.68
2018-05-10T23:23:38.758Z,17.87
2018-05-10T23:26:06.937Z,19.17
2018-05-10T23:31:05.480Z,15.33
2018-05-10T23:33:32.972Z,13.90
2018-05-10T23:36:00.381Z,16.97
2018-05-10T23:38:27.897Z,19.73
2018-05-10T23:40:55.362Z,18.70
2018-05-10T23:43:22.828Z,15.27
2018-05-10T23:45:50.258Z,17.80
2018-05-10T23:48:17.664Z,16.73
2018-05-10T23:50:45.101Z,13.20
2018-05-10T23:53:12.547Z,16.07
2018-05-10T23:55:39.964Z,13.50
2018-05-10T23:58:07.377Z,14.43
